createdAt,value
2022-10-30T00:00:55.524Z,63.10
2022-10-30T00:03:24.421Z,63.05
2022-10-30T00:05:53.064Z,63.21
2022-10-30T00:08:25.504Z,63.10
2022-10-30T00:10:54.388Z,63.05
2022-10-30T00:13:23.253Z,63.11
2022-10-30T00:15:55.077Z,63.18
2022-10-30T00:18:23.649Z,63.13
2022-10-30T00:20:52.024Z,63.10
2022-10-30T00:23:20.522Z,62.95
2022-10-30T00:25:49.001Z,62.91
2022-10-30T00:28:17.219Z,62.94
2022-10-30T00:30:45.484Z,63.03
2022-10-30T00:33:15.233Z,62.93
2022-10-30T00:35:49.628Z,62.86
2022-10-30T00:38:18.094Z,62.95
2022-10-30T00:40:46.382Z,62.83
2022-10-30T00:43:32.884Z,62.82
2022-10-30T00:46:06.056Z,63.06
2022-10-30T00:48:36.176Z,62.85
2022-10-30T00:51:09.589Z,62.89
2022-10-30T00:53:38.885Z,62.91
2022-10-30T00:56:09.762Z,62.97
2022-10-30T00:58:44.370Z,63.10
2022-10-30T01:01:18.569Z,63.13
2022-10-30T01:03:51.566Z,63.25
2022-10-30T01:06:20.527Z,63.38
2022-10-30T01:08:50.088Z,63.28
2022-10-30T01:11:21.088Z,63.25
2022-10-30T01:13:51.512Z,63.25
2022-10-30T01:16:33.205Z,63.33
2022-10-30T01:19:13.496Z,63.57
2022-10-30T01:21:56.486Z,63.29
2022-10-30T01:24:36.040Z,63.52
2022-10-30T01:27:18.644Z,63.58
2022-10-30T01:29:56.973Z,63.37
2022-10-30T01:32:41.810Z,63.43
2022-10-30T01:35:16.131Z,63.30
2022-10-30T01:37:51.692Z,63.03
2022-10-30T01:40:21.281Z,63.09
2022-10-30T01:42:52.537Z,63.01
2022-10-30T01:45:42.910Z,63.02
2022-10-30T01:48:48.765Z,63.44
2022-10-30T01:51:28.483Z,63.71
2022-10-30T01:54:09.787Z,63.73
2022-10-30T01:56:45.013Z,63.87
2022-10-30T01:59:18.931Z,63.99
2022-10-30T02:01:48.598Z,63.82
2022-10-30T02:04:17.766Z,63.54
2022-10-30T02:06:47.673Z,63.58
2022-10-30T02:09:17.329Z,63.52
2022-10-30T02:11:48.031Z,63.43
2022-10-30T02:14:21.723Z,63.34
2022-10-30T02:16:53.897Z,63.70
2022-10-30T02:19:22.160Z,63.44
2022-10-30T02:21:52.583Z,63.59
2022-10-30T02:24:21.406Z,63.63
2022-10-30T02:26:50.030Z,63.66
2022-10-30T02:29:20.706Z,63.66
2022-10-30T02:31:49.298Z,63.77
2022-10-30T02:34:18.248Z,63.88
2022-10-30T02:36:46.387Z,63.82
2022-10-30T02:39:16.197Z,63.63
2022-10-30T02:41:44.838Z,63.66
2022-10-30T02:44:13.584Z,63.57
2022-10-30T02:46:41.968Z,63.49
2022-10-30T02:49:10.451Z,63.43
2022-10-30T02:51:38.663Z,63.21
2022-10-30T02:54:06.949Z,63.05
2022-10-30T02:56:36.819Z,63.07
2022-10-30T02:59:05.054Z,63.36
2022-10-30T03:01:33.453Z,63.29
2022-10-30T03:04:02.173Z,63.58
2022-10-30T03:06:30.364Z,64.01
2022-10-30T03:08:59.327Z,64.30
2022-10-30T03:11:28.149Z,64.04
2022-10-30T03:13:57.985Z,64.05
2022-10-30T03:16:29.428Z,63.81
2022-10-30T03:18:59.240Z,63.65
2022-10-30T03:21:29.070Z,63.50
2022-10-30T03:23:58.224Z,63.86
2022-10-30T03:26:26.883Z,63.87
2022-10-30T03:28:55.152Z,64.03
2022-10-30T03:31:25.272Z,64.10
2022-10-30T03:33:53.978Z,64.34
2022-10-30T03:36:22.257Z,64.08
2022-10-30T03:38:50.990Z,64.13
2022-10-30T03:41:19.452Z,63.99
2022-10-30T03:43:47.991Z,64.81
2022-10-30T03:46:16.454Z,64.56
2022-10-30T03:48:49.987Z,64.53
2022-10-30T03:51:18.875Z,64.39
2022-10-30T03:53:47.909Z,64.28
2022-10-30T03:56:16.228Z,64.17
2022-10-30T03:58:45.267Z,64.39
2022-10-30T04:01:13.971Z,64.40
2022-10-30T04:03:43.519Z,64.42
2022-10-30T04:06:13.874Z,64.39
2022-10-30T04:08:42.500Z,64.29
2022-10-30T04:11:12.080Z,63.90
2022-10-30T04:13:40.810Z,64.00
2022-10-30T04:16:09.356Z,64.03
2022-10-30T04:18:37.571Z,64.43
2022-10-30T04:21:07.148Z,64.41
2022-10-30T04:23:37.074Z,64.16
2022-10-30T04:26:05.656Z,64.27
2022-10-30T04:28:33.986Z,64.31
2022-10-30T04:31:02.544Z,64.30
2022-10-30T04:33:32.177Z,64.64
2022-10-30T04:36:00.666Z,64.53
2022-10-30T04:38:29.238Z,64.34
2022-10-30T04:40:58.896Z,64.28
2022-10-30T04:43:28.755Z,64.39
2022-10-30T04:45:57.208Z,64.19
2022-10-30T04:48:25.567Z,64.13
2022-10-30T04:50:55.280Z,64.04
2022-10-30T04:53:24.085Z,63.82
2022-10-30T04:55:55.456Z,63.88
2022-10-30T04:58:25.418Z,64.09
2022-10-30T05:00:56.712Z,63.89
2022-10-30T05:03:29.129Z,63.93
2022-10-30T05:05:59.783Z,63.94
2022-10-30T05:08:28.269Z,64.05
2022-10-30T05:10:57.163Z,63.99
2022-10-30T05:13:26.986Z,64.84
2022-10-30T05:15:56.102Z,64.95
2022-10-30T05:18:24.760Z,65.04
2022-10-30T05:20:52.899Z,64.96
2022-10-30T05:23:21.101Z,64.67
2022-10-30T05:25:49.689Z,64.74
2022-10-30T05:28:18.030Z,64.63
2022-10-30T05:30:48.267Z,64.57
2022-10-30T05:33:18.725Z,64.73
2022-10-30T05:35:47.123Z,64.33
2022-10-30T05:38:15.441Z,64.49
2022-10-30T05:40:47.903Z,64.70
2022-10-30T05:43:16.390Z,64.64
2022-10-30T05:45:45.067Z,64.65
2022-10-30T05:48:14.713Z,64.22
2022-10-30T05:50:43.453Z,64.18
2022-10-30T05:53:12.174Z,64.63
2022-10-30T05:55:40.691Z,65.15
2022-10-30T05:58:11.212Z,65.33
2022-10-30T06:00:40.765Z,65.10
2022-10-30T06:03:12.311Z,64.92
2022-10-30T06:05:46.142Z,65.11
2022-10-30T06:08:17.084Z,65.19
2022-10-30T06:10:46.229Z,65.57
2022-10-30T06:13:14.787Z,65.81
2022-10-30T06:15:43.475Z,65.47
2022-10-30T06:18:12.069Z,65.57
2022-10-30T06:20:44.050Z,65.48
2022-10-30T06:23:15.795Z,65.25
2022-10-30T06:25:44.732Z,65.48
2022-10-30T06:28:14.293Z,65.71
2022-10-30T06:30:45.267Z,65.63
2022-10-30T06:33:13.888Z,65.49
2022-10-30T06:35:44.819Z,65.35
2022-10-30T06:38:17.451Z,65.21
2022-10-30T06:40:49.125Z,65.14
2022-10-30T06:43:18.339Z,65.17
2022-10-30T06:45:47.318Z,64.95
2022-10-30T06:48:15.718Z,65.01
2022-10-30T06:50:45.983Z,65.02
2022-10-30T06:53:14.436Z,64.85
2022-10-30T06:55:43.011Z,64.94
2022-10-30T06:58:11.393Z,64.77
2022-10-30T07:00:40.065Z,64.66
2022-10-30T07:03:09.682Z,64.62
2022-10-30T07:05:38.002Z,64.42
2022-10-30T07:08:07.874Z,64.38
2022-10-30T07:10:36.104Z,64.72
2022-10-30T07:13:05.985Z,64.53
2022-10-30T07:15:35.071Z,64.29
2022-10-30T07:18:05.507Z,64.48
2022-10-30T07:20:40.306Z,64.59
2022-10-30T07:23:11.994Z,64.51
2022-10-30T07:25:40.312Z,64.62
2022-10-30T07:28:08.882Z,64.65
2022-10-30T07:30:37.807Z,64.60
2022-10-30T07:33:08.519Z,64.37
2022-10-30T07:35:38.353Z,64.47
2022-10-30T07:38:11.019Z,64.32
2022-10-30T07:40:41.452Z,64.43
2022-10-30T07:43:13.239Z,64.46
2022-10-30T07:45:41.980Z,64.14
2022-10-30T07:48:13.112Z,64.45
2022-10-30T07:50:41.812Z,64.69
2022-10-30T07:53:10.075Z,64.11
2022-10-30T07:55:38.507Z,63.87
2022-10-30T07:58:09.941Z,63.95
2022-10-30T08:00:39.166Z,63.82
2022-10-30T08:03:08.257Z,63.82
2022-10-30T08:05:38.277Z,63.83
2022-10-30T08:08:07.616Z,63.61
2022-10-30T08:10:36.711Z,63.46
2022-10-30T08:13:05.050Z,63.14
2022-10-30T08:15:34.664Z,63.05
2022-10-30T08:18:03.794Z,63.09
2022-10-30T08:20:32.180Z,62.82
2022-10-30T08:23:00.932Z,62.70
2022-10-30T08:25:31.484Z,62.86
2022-10-30T08:28:02.206Z,62.79
2022-10-30T08:30:34.334Z,62.62
2022-10-30T08:33:06.457Z,62.37
2022-10-30T08:35:39.056Z,62.40
2022-10-30T08:38:07.428Z,62.46
2022-10-30T08:40:35.718Z,62.42
2022-10-30T08:43:04.510Z,62.23
2022-10-30T08:45:33.082Z,62.31
2022-10-30T08:48:04.269Z,62.16
2022-10-30T08:50:37.054Z,62.05
2022-10-30T08:53:08.002Z,62.07
2022-10-30T08:55:36.778Z,61.87
2022-10-30T08:58:05.542Z,61.55
2022-10-30T09:00:34.229Z,61.45
2022-10-30T09:03:07.023Z,61.32
2022-10-30T09:05:39.198Z,61.13
2022-10-30T09:08:09.829Z,60.85
2022-10-30T09:10:40.399Z,60.68
2022-10-30T09:13:10.388Z,60.99
2022-10-30T09:15:38.715Z,60.96
2022-10-30T09:18:07.274Z,60.74
2022-10-30T09:20:35.721Z,60.33
2022-10-30T09:23:06.362Z,60.25
2022-10-30T09:25:34.801Z,60.22
2022-10-30T09:28:03.756Z,60.29
2022-10-30T09:30:35.170Z,59.61
2022-10-30T09:33:04.628Z,59.78
2022-10-30T09:35:37.191Z,59.39
2022-10-30T09:38:07.243Z,59.56
2022-10-30T09:40:49.517Z,59.63
2022-10-30T09:43:29.590Z,58.45
2022-10-30T09:46:12.496Z,58.44
2022-10-30T09:49:10.963Z,57.51
2022-10-30T09:52:15.292Z,56.23
2022-10-30T09:54:57.045Z,56.71
2022-10-30T09:57:35.305Z,57.44
2022-10-30T10:00:07.313Z,57.38
2022-10-30T10:02:57.691Z,56.94
2022-10-30T10:05:41.117Z,56.68
2022-10-30T10:08:15.601Z,57.10
2022-10-30T10:10:53.144Z,57.56
2022-10-30T10:13:31.330Z,56.99
2022-10-30T10:16:04.360Z,56.26
2022-10-30T10:18:38.773Z,56.84
2022-10-30T10:21:15.168Z,56.81
2022-10-30T10:23:49.373Z,55.63
2022-10-30T10:26:28.690Z,56.03
2022-10-30T10:29:10.122Z,55.23
2022-10-30T10:31:47.688Z,53.57
2022-10-30T10:34:38.238Z,55.46
2022-10-30T10:37:16.179Z,51.53
2022-10-30T10:40:13.497Z,55.08
2022-10-30T10:42:57.928Z,53.06
2022-10-30T10:45:34.473Z,54.48
2022-10-30T10:48:42.243Z,55.07
2022-10-30T10:51:14.980Z,52.64
2022-10-30T10:53:47.351Z,55.36
2022-10-30T10:56:15.832Z,54.93
2022-10-30T10:58:52.732Z,55.15
2022-10-30T11:01:29.216Z,53.61
2022-10-30T11:04:01.320Z,54.61
2022-10-30T11:06:33.444Z,52.90
2022-10-30T11:09:16.456Z,54.66
2022-10-30T11:11:44.758Z,53.21
2022-10-30T11:14:17.834Z,54.65
2022-10-30T11:17:04.607Z,53.79
2022-10-30T11:19:33.906Z,52.00
2022-10-30T11:22:02.351Z,54.15
2022-10-30T11:24:32.695Z,53.24
2022-10-30T11:27:19.530Z,53.58
2022-10-30T11:29:53.965Z,51.58
2022-10-30T11:32:23.676Z,49.69
2022-10-30T11:35:03.961Z,53.34
2022-10-30T11:37:34.269Z,51.83
2022-10-30T11:40:05.926Z,53.29
2022-10-30T11:42:35.843Z,53.32
2022-10-30T11:45:07.202Z,53.46
2022-10-30T11:47:38.476Z,52.36
2022-10-30T11:50:16.844Z,52.82
2022-10-30T11:52:49.844Z,52.26
2022-10-30T11:55:20.911Z,52.45
2022-10-30T11:57:52.351Z,50.50
2022-10-30T12:00:23.647Z,51.10
2022-10-30T12:02:54.840Z,50.14
2022-10-30T12:05:33.961Z,51.47
2022-10-30T12:08:23.225Z,47.75
2022-10-30T12:11:01.770Z,48.47
2022-10-30T12:13:37.842Z,50.00
2022-10-30T12:16:14.174Z,50.26
2022-10-30T12:18:43.994Z,50.74
2022-10-30T12:21:19.962Z,51.63
2022-10-30T12:23:53.872Z,49.00
2022-10-30T12:26:24.093Z,48.67
2022-10-30T12:28:58.481Z,51.27
2022-10-30T12:31:35.878Z,50.36
2022-10-30T12:34:16.958Z,49.36
2022-10-30T12:36:49.182Z,48.67
2022-10-30T12:39:24.642Z,50.38
2022-10-30T12:42:01.509Z,50.46
2022-10-30T12:44:35.156Z,49.16
2022-10-30T12:47:14.108Z,50.34
2022-10-30T12:49:47.916Z,48.35
2022-10-30T12:52:21.100Z,50.54
2022-10-30T12:54:56.022Z,48.98
2022-10-30T12:57:28.044Z,49.98
2022-10-30T13:00:02.627Z,48.29
2022-10-30T13:02:43.565Z,49.46
2022-10-30T13:05:25.569Z,47.67
2022-10-30T13:08:03.829Z,47.85
2022-10-30T13:10:35.235Z,49.36
2022-10-30T13:13:11.108Z,50.60
2022-10-30T13:15:45.913Z,49.61
2022-10-30T13:18:18.930Z,49.13
2022-10-30T13:21:02.751Z,49.56
2022-10-30T13:23:40.242Z,49.28
2022-10-30T13:26:18.470Z,48.90
2022-10-30T13:28:54.856Z,50.09
2022-10-30T13:31:32.415Z,50.01
2022-10-30T13:34:09.068Z,49.54
2022-10-30T13:36:46.867Z,49.49
2022-10-30T13:39:23.482Z,49.38
2022-10-30T13:42:07.642Z,50.12
2022-10-30T13:44:49.990Z,49.22
2022-10-30T13:47:29.942Z,49.97
2022-10-30T13:50:12.407Z,50.24
2022-10-30T13:52:46.137Z,49.96
2022-10-30T13:55:20.368Z,50.79
2022-10-30T13:57:56.632Z,49.95
2022-10-30T14:00:30.873Z,50.57
2022-10-30T14:03:25.551Z,50.84
2022-10-30T14:06:11.732Z,49.95
2022-10-30T14:08:46.755Z,50.74
2022-10-30T14:11:15.586Z,51.20
2022-10-30T14:13:54.609Z,51.40
2022-10-30T14:16:42.862Z,51.20
2022-10-30T14:19:13.453Z,50.55
2022-10-30T14:21:53.011Z,51.64
2022-10-30T14:24:24.625Z,51.20
2022-10-30T14:26:55.992Z,51.85
2022-10-30T14:29:45.370Z,51.90
2022-10-30T14:32:36.989Z,51.60
2022-10-30T14:35:33.818Z,51.27
2022-10-30T14:38:29.879Z,51.27
2022-10-30T14:41:28.814Z,51.65
2022-10-30T14:44:07.474Z,51.85
2022-10-30T14:46:45.929Z,52.29
2022-10-30T14:49:35.026Z,52.56
2022-10-30T14:52:14.486Z,52.33
2022-10-30T14:54:48.970Z,52.65
2022-10-30T14:57:24.485Z,52.66
2022-10-30T15:00:25.828Z,52.69
2022-10-30T15:02:59.235Z,52.33
2022-10-30T15:05:44.271Z,52.92
2022-10-30T15:08:31.415Z,52.67
2022-10-30T15:11:25.076Z,52.77
2022-10-30T15:13:57.387Z,52.93
2022-10-30T15:16:29.010Z,53.13
2022-10-30T15:19:03.818Z,53.20
2022-10-30T15:21:34.897Z,53.16
2022-10-30T15:24:03.466Z,53.28
2022-10-30T15:26:36.991Z,53.23
2022-10-30T15:29:06.717Z,53.31
2022-10-30T15:31:34.954Z,53.41
2022-10-30T15:34:15.827Z,53.45
2022-10-30T15:36:44.417Z,53.58
2022-10-30T15:39:15.462Z,53.70
2022-10-30T15:41:47.355Z,53.92
2022-10-30T15:44:18.702Z,54.04
2022-10-30T15:46:48.930Z,54.20
2022-10-30T15:49:27.937Z,54.35
2022-10-30T15:51:56.859Z,54.70
2022-10-30T15:54:26.466Z,54.73
2022-10-30T15:59:52.541Z,55.06
2022-10-30T16:02:22.875Z,55.19
2022-10-30T16:04:53.069Z,55.29
2022-10-30T16:07:23.766Z,55.43
2022-10-30T16:09:56.861Z,55.40
2022-10-30T16:12:27.042Z,55.77
2022-10-30T16:14:56.601Z,55.91
2022-10-30T16:17:26.318Z,56.18
2022-10-30T16:20:01.445Z,56.80
2022-10-30T16:22:34.335Z,57.33
2022-10-30T16:25:07.333Z,57.53
2022-10-30T16:27:44.551Z,57.78
2022-10-30T16:30:15.048Z,58.58
2022-10-30T16:32:52.139Z,58.41
2022-10-30T16:35:24.257Z,58.48
2022-10-30T16:37:53.336Z,58.86
2022-10-30T16:40:26.633Z,58.31
2022-10-30T16:42:59.246Z,58.17
2022-10-30T16:45:49.416Z,58.02
2022-10-30T16:48:27.963Z,58.19
2022-10-30T16:51:03.301Z,57.88
2022-10-30T16:53:32.835Z,58.08
2022-10-30T16:56:01.316Z,58.06
2022-10-30T16:58:32.165Z,58.14
2022-10-30T17:01:05.597Z,58.08
2022-10-30T17:03:39.255Z,58.17
2022-10-30T17:06:27.198Z,58.32
2022-10-30T17:08:59.515Z,58.90
2022-10-30T17:11:41.945Z,58.07
2022-10-30T17:14:21.113Z,58.36
2022-10-30T17:16:55.080Z,58.51
2022-10-30T17:19:46.597Z,58.39
2022-10-30T17:22:20.483Z,58.55
2022-10-30T17:24:49.298Z,58.34
2022-10-30T17:27:30.511Z,58.39
2022-10-30T17:30:00.135Z,58.66
2022-10-30T17:32:42.608Z,58.41
2022-10-30T17:35:15.804Z,58.34
2022-10-30T17:37:46.127Z,58.73
2022-10-30T17:40:15.659Z,58.72
2022-10-30T17:42:44.542Z,58.63
2022-10-30T17:45:14.543Z,58.59
2022-10-30T17:47:42.920Z,58.68
2022-10-30T17:50:12.446Z,59.31
2022-10-30T17:52:40.870Z,59.42
2022-10-30T17:55:23.971Z,59.78
2022-10-30T17:57:52.782Z,59.81
2022-10-30T18:00:21.415Z,59.49
2022-10-30T18:02:50.142Z,59.49
2022-10-30T18:05:22.663Z,59.60
2022-10-30T18:07:51.357Z,59.44
2022-10-30T18:10:21.264Z,59.31
2022-10-30T18:12:49.758Z,59.38
2022-10-30T18:15:28.113Z,59.38
2022-10-30T18:17:56.625Z,59.80
2022-10-30T18:20:25.530Z,59.86
2022-10-30T18:22:55.524Z,59.84
2022-10-30T18:25:28.103Z,59.80
2022-10-30T18:27:56.458Z,60.02
2022-10-30T18:30:25.907Z,59.88
2022-10-30T18:32:54.764Z,60.08
2022-10-30T18:35:31.775Z,60.28
2022-10-30T18:38:02.495Z,60.17
2022-10-30T18:40:35.566Z,60.18
2022-10-30T18:43:10.517Z,59.98
2022-10-30T18:45:40.972Z,59.96
2022-10-30T18:48:09.959Z,60.39
2022-10-30T18:50:39.301Z,60.51
2022-10-30T18:53:15.650Z,60.59
2022-10-30T18:58:19.776Z,61.02
2022-10-30T19:01:11.109Z,60.88
2022-10-30T19:03:36.899Z,60.74
2022-10-30T19:06:05.879Z,60.69
2022-10-30T19:08:34.324Z,60.64
2022-10-30T19:11:04.157Z,60.43
2022-10-30T19:13:33.186Z,60.31
2022-10-30T19:16:01.748Z,60.40
2022-10-30T19:18:32.508Z,61.21
2022-10-30T19:21:06.560Z,61.65
2022-10-30T19:23:37.676Z,62.29
2022-10-30T19:26:07.989Z,62.33
2022-10-30T19:28:38.335Z,62.00
2022-10-30T19:31:07.672Z,61.82
2022-10-30T19:33:36.252Z,62.04
2022-10-30T19:36:05.776Z,62.26
2022-10-30T19:38:34.994Z,62.63
2022-10-30T19:41:03.516Z,62.77
2022-10-30T19:43:33.443Z,62.42
2022-10-30T19:46:02.005Z,62.57
2022-10-30T19:48:56.017Z,62.20
2022-10-30T19:51:18.961Z,62.21
2022-10-30T19:53:47.480Z,62.20
2022-10-30T19:56:17.478Z,61.99
2022-10-30T19:58:47.846Z,62.14
2022-10-30T20:01:17.030Z,62.55
2022-10-30T20:03:45.786Z,63.17
2022-10-30T20:06:15.004Z,62.94
2022-10-30T20:08:43.713Z,62.76
2022-10-30T20:11:12.416Z,62.77
2022-10-30T20:13:41.035Z,62.70
2022-10-30T20:16:12.272Z,63.01
2022-10-30T20:18:41.169Z,63.32
2022-10-30T20:21:13.983Z,62.78
2022-10-30T20:23:42.589Z,62.70
2022-10-30T20:26:24.097Z,62.21
2022-10-30T20:28:53.266Z,61.97
2022-10-30T20:31:23.394Z,62.45
2022-10-30T20:33:52.010Z,62.93
2022-10-30T20:36:20.790Z,63.54
2022-10-30T20:38:49.089Z,63.01
2022-10-30T20:41:22.441Z,63.34
2022-10-30T20:43:51.213Z,64.93
2022-10-30T20:46:19.955Z,64.02
2022-10-30T20:48:50.046Z,63.79
2022-10-30T20:51:19.146Z,63.33
2022-10-30T20:53:47.334Z,63.12
2022-10-30T20:56:15.772Z,62.92
2022-10-30T20:58:44.302Z,63.12
2022-10-30T21:01:13.690Z,63.53
2022-10-30T21:03:42.116Z,63.37
2022-10-30T21:06:13.389Z,63.48
2022-10-30T21:08:41.837Z,63.73
2022-10-30T21:11:10.128Z,64.53
2022-10-30T21:13:38.858Z,65.22
2022-10-30T21:16:09.614Z,64.10
2022-10-30T21:18:37.854Z,63.35
2022-10-30T21:21:08.746Z,63.82
2022-10-30T21:23:38.424Z,63.78
2022-10-30T21:26:09.785Z,64.29
2022-10-30T21:28:38.053Z,64.28
2022-10-30T21:31:09.564Z,64.14
2022-10-30T21:33:38.443Z,63.84
2022-10-30T21:36:12.309Z,63.79
2022-10-30T21:38:44.355Z,63.49
2022-10-30T21:41:15.158Z,65.08
2022-10-30T21:43:43.886Z,64.84
2022-10-30T21:46:13.795Z,64.23
2022-10-30T21:48:42.092Z,64.65
2022-10-30T21:51:12.568Z,64.59
2022-10-30T21:53:42.803Z,64.31
2022-10-30T21:56:12.868Z,63.99
2022-10-30T21:58:42.152Z,64.41
2022-10-30T22:01:15.607Z,65.13
2022-10-30T22:03:44.564Z,65.54
2022-10-30T22:06:14.408Z,64.73
2022-10-30T22:08:48.237Z,64.30
2022-10-30T22:11:17.594Z,64.45
2022-10-30T22:13:46.656Z,64.05
2022-10-30T22:16:16.416Z,63.97
2022-10-30T22:18:45.318Z,64.55
2022-10-30T22:21:14.809Z,64.33
2022-10-30T22:23:45.144Z,64.11
2022-10-30T22:26:15.872Z,63.91
2022-10-30T22:28:46.263Z,64.21
2022-10-30T22:31:17.355Z,64.00
2022-10-30T22:33:45.961Z,63.65
2022-10-30T22:36:17.111Z,63.70
2022-10-30T22:38:47.442Z,63.81
2022-10-30T22:41:18.185Z,63.84
2022-10-30T22:43:51.234Z,63.77
2022-10-30T22:46:20.155Z,64.36
2022-10-30T22:48:48.592Z,65.22
2022-10-30T22:51:19.660Z,64.75
2022-10-30T22:53:56.399Z,64.52
2022-10-30T22:56:27.047Z,64.54
2022-10-30T22:58:56.622Z,64.47
2022-10-30T23:01:30.152Z,64.42
2022-10-30T23:04:01.091Z,64.43
2022-10-30T23:06:31.480Z,64.28
2022-10-30T23:09:03.746Z,64.26
2022-10-30T23:11:33.153Z,64.48
2022-10-30T23:14:01.744Z,63.86
2022-10-30T23:16:30.330Z,63.99
2022-10-30T23:19:00.582Z,63.93
2022-10-30T23:21:30.825Z,63.87
2022-10-30T23:24:02.890Z,64.05
2022-10-30T23:26:33.796Z,63.90
2022-10-30T23:29:03.044Z,63.91
2022-10-30T23:31:34.427Z,63.74
2022-10-30T23:34:04.538Z,63.60
2022-10-30T23:36:33.255Z,63.63
2022-10-30T23:39:05.010Z,63.66
2022-10-30T23:41:35.093Z,63.59
2022-10-30T23:44:06.905Z,63.47
2022-10-30T23:46:36.472Z,63.54
2022-10-30T23:49:05.565Z,63.27
2022-10-30T23:51:34.620Z,63.08
2022-10-30T23:54:04.546Z,62.99
2022-10-30T23:56:33.005Z,62.97
2022-10-30T23:59:01.736Z,62.98
